createdAt,value
2023-05-09T00:01:14.562Z,23.33
2023-05-09T00:03:43.508Z,24.88
2023-05-09T00:06:11.932Z,22.45
2023-05-09T00:08:39.160Z,21.70
2023-05-09T00:11:06.331Z,22.60
2023-05-09T00:13:35.057Z,23.45
2023-05-09T00:16:02.648Z,23.08
2023-05-09T00:18:31.643Z,25.80
2023-05-09T00:20:58.767Z,23.48
2023-05-09T00:23:25.976Z,22.17
2023-05-09T00:25:53.127Z,21.67
2023-05-09T00:28:20.427Z,23.17
2023-05-09T00:30:47.641Z,22.45
2023-05-09T00:33:14.770Z,21.73
2023-05-09T00:35:41.963Z,21.27
2023-05-09T00:38:09.296Z,22.95
2023-05-09T00:40:36.395Z,23.67
2023-05-09T00:43:03.721Z,24.40
2023-05-09T00:45:31.377Z,22.75
2023-05-09T00:47:58.684Z,22.98
2023-05-09T00:50:25.954Z,23.10
2023-05-09T00:52:53.228Z,22.13
2023-05-09T00:55:20.379Z,21.35
2023-05-09T00:57:47.574Z,20.83
2023-05-09T01:00:15.297Z,23.40
2023-05-09T01:02:49.736Z,21.55
2023-05-09T01:05:17.327Z,21.63
2023-05-09T01:07:57.327Z,21.75
2023-05-09T01:10:49.468Z,22.98
2023-05-09T01:13:33.416Z,24.02
2023-05-09T01:16:18.130Z,25.88
2023-05-09T01:19:01.780Z,23.30
2023-05-09T01:21:31.985Z,23.30
2023-05-09T01:24:05.013Z,22.70
2023-05-09T01:26:51.679Z,24.60
2023-05-09T01:29:41.650Z,23.77
2023-05-09T01:32:16.460Z,21.60
2023-05-09T01:34:50.048Z,23.23
2023-05-09T01:37:22.623Z,23.90
2023-05-09T01:42:21.777Z,23.65
2023-05-09T01:44:50.096Z,23.50
2023-05-09T01:47:18.733Z,21.55
2023-05-09T01:49:48.054Z,21.30
2023-05-09T01:52:19.615Z,23.52
2023-05-09T01:54:47.689Z,20.58
2023-05-09T01:57:15.424Z,23.08
2023-05-09T01:59:45.686Z,22.92
2023-05-09T02:02:13.427Z,20.15
2023-05-09T02:04:43.672Z,23.13
2023-05-09T02:07:13.170Z,27.25
2023-05-09T02:09:40.547Z,20.48
2023-05-09T02:12:07.903Z,23.08
2023-05-09T02:14:35.059Z,22.25
2023-05-09T02:17:07.213Z,22.13
2023-05-09T02:19:35.867Z,21.40
2023-05-09T02:22:05.336Z,23.88
2023-05-09T02:24:34.756Z,24.23
2023-05-09T02:27:03.898Z,24.50
2023-05-09T02:29:54.287Z,23.63
2023-05-09T02:32:26.101Z,23.33
2023-05-09T02:34:54.677Z,25.77
2023-05-09T02:37:22.647Z,22.92
2023-05-09T02:39:49.907Z,24.50
2023-05-09T02:42:22.777Z,24.05
2023-05-09T02:44:49.975Z,23.05
2023-05-09T02:47:17.158Z,25.73
2023-05-09T02:49:45.138Z,24.13
2023-05-09T02:52:13.046Z,22.65
2023-05-09T02:54:40.543Z,25.00
2023-05-09T02:57:07.796Z,22.02
2023-05-09T02:59:35.227Z,24.33
2023-05-09T03:02:03.146Z,25.23
2023-05-09T03:04:30.971Z,25.25
2023-05-09T03:06:58.245Z,24.70
2023-05-09T03:09:30.442Z,26.10
2023-05-09T03:11:57.686Z,23.40
2023-05-09T03:14:25.073Z,23.50
2023-05-09T03:16:52.467Z,21.35
2023-05-09T03:19:25.666Z,24.55
2023-05-09T03:21:52.759Z,21.65
2023-05-09T03:24:20.667Z,21.85
2023-05-09T03:26:48.320Z,22.95
2023-05-09T03:29:15.589Z,20.13
2023-05-09T03:31:42.824Z,20.48
2023-05-09T03:34:15.451Z,20.02
2023-05-09T03:36:44.908Z,19.05
2023-05-09T03:39:14.650Z,20.88
2023-05-09T03:41:45.043Z,21.75
2023-05-09T03:44:12.897Z,21.02
2023-05-09T03:46:40.164Z,19.05
2023-05-09T03:49:07.759Z,16.48
2023-05-09T03:51:37.080Z,20.13
2023-05-09T03:54:09.030Z,17.83
2023-05-09T03:56:36.410Z,17.73
2023-05-09T03:59:04.206Z,19.52
2023-05-09T04:01:33.655Z,17.73
2023-05-09T04:04:03.032Z,16.20
2023-05-09T04:06:34.480Z,16.10
2023-05-09T04:09:03.136Z,17.20
2023-05-09T04:11:30.986Z,15.90
2023-05-09T04:13:59.871Z,16.08
2023-05-09T04:16:33.773Z,17.15
2023-05-09T04:19:01.172Z,15.82
2023-05-09T04:21:28.341Z,16.60
2023-05-09T04:23:59.031Z,16.73
2023-05-09T04:26:35.964Z,16.40
2023-05-09T04:29:03.433Z,15.98
2023-05-09T04:31:31.692Z,15.93
2023-05-09T04:34:00.353Z,15.68
2023-05-09T04:36:29.783Z,12.20
2023-05-09T04:38:58.496Z,14.63
2023-05-09T04:41:28.019Z,13.20
2023-05-09T04:43:56.070Z,14.05
2023-05-09T04:46:26.286Z,12.35
2023-05-09T04:48:54.134Z,11.35
2023-05-09T04:51:21.263Z,10.27
2023-05-09T04:53:48.397Z,9.27
2023-05-09T04:56:18.340Z,10.98
2023-05-09T04:58:47.674Z,9.98
2023-05-09T05:01:17.173Z,10.18
2023-05-09T05:03:46.589Z,9.98
2023-05-09T05:06:13.900Z,9.35
2023-05-09T05:08:42.685Z,9.48
2023-05-09T05:11:10.379Z,9.02
2023-05-09T05:13:37.695Z,11.60
2023-05-09T05:16:05.706Z,9.40
2023-05-09T05:18:33.221Z,7.80
2023-05-09T05:21:00.306Z,7.38
2023-05-09T05:23:27.789Z,7.80
2023-05-09T05:25:56.120Z,7.53
2023-05-09T05:28:23.859Z,8.77
2023-05-09T05:30:51.283Z,8.13
2023-05-09T05:33:18.616Z,7.70
2023-05-09T05:35:45.876Z,7.63
2023-05-09T05:38:13.260Z,6.93
2023-05-09T05:40:40.624Z,7.13
2023-05-09T05:43:08.603Z,7.13
2023-05-09T05:45:38.265Z,7.25
2023-05-09T05:48:08.698Z,6.75
2023-05-09T05:50:37.084Z,7.05
2023-05-09T05:53:04.872Z,7.15
2023-05-09T05:55:33.408Z,7.10
2023-05-09T05:58:00.759Z,6.97
2023-05-09T06:00:28.670Z,7.68
2023-05-09T06:03:02.410Z,6.85
2023-05-09T06:05:38.875Z,6.70
2023-05-09T06:08:06.652Z,6.55
2023-05-09T06:10:33.979Z,6.45
2023-05-09T06:13:01.265Z,7.07
2023-05-09T06:15:28.427Z,7.10
2023-05-09T06:17:56.245Z,7.18
2023-05-09T06:20:23.438Z,7.70
2023-05-09T06:22:50.897Z,7.80
2023-05-09T06:25:19.305Z,7.70
2023-05-09T06:27:46.515Z,6.13
2023-05-09T06:30:25.535Z,5.55
2023-05-09T06:32:55.353Z,10.63
2023-05-09T06:35:22.666Z,9.45
2023-05-09T06:38:27.673Z,8.82
2023-05-09T06:41:01.406Z,8.52
2023-05-09T06:43:28.581Z,6.45
2023-05-09T06:45:58.778Z,7.28
2023-05-09T06:48:29.236Z,8.85
2023-05-09T06:50:58.385Z,6.88
2023-05-09T06:56:26.861Z,5.63
2023-05-09T06:58:54.338Z,5.93
2023-05-09T07:01:21.486Z,6.43
2023-05-09T07:03:48.778Z,7.28
2023-05-09T07:06:16.174Z,6.72
2023-05-09T07:08:43.311Z,6.90
2023-05-09T07:11:10.514Z,6.18
2023-05-09T07:13:37.644Z,7.10
2023-05-09T07:16:05.077Z,8.98
2023-05-09T07:18:32.294Z,6.00
2023-05-09T07:20:59.336Z,6.00
2023-05-09T07:23:27.481Z,5.97
2023-05-09T07:25:58.951Z,8.38
2023-05-09T07:28:26.478Z,6.33
2023-05-09T07:30:56.148Z,6.85
2023-05-09T07:33:24.968Z,6.18
2023-05-09T07:35:53.318Z,6.38
2023-05-09T07:38:20.634Z,8.35
2023-05-09T07:40:47.836Z,6.93
2023-05-09T07:43:14.926Z,6.60
2023-05-09T07:45:42.045Z,6.57
2023-05-09T07:48:09.897Z,5.88
2023-05-09T07:50:40.759Z,7.40
2023-05-09T07:53:08.119Z,7.45
2023-05-09T07:55:35.451Z,6.45
2023-05-09T07:58:02.815Z,6.72
2023-05-09T08:00:30.051Z,7.18
2023-05-09T08:02:57.513Z,7.47
2023-05-09T08:05:24.741Z,6.97
2023-05-09T08:07:52.006Z,6.03
2023-05-09T08:10:19.237Z,8.02
2023-05-09T08:12:46.375Z,7.10
2023-05-09T08:15:13.767Z,7.88
2023-05-09T08:17:41.290Z,7.50
2023-05-09T08:20:09.499Z,7.45
2023-05-09T08:22:36.676Z,7.80
2023-05-09T08:25:04.035Z,9.90
2023-05-09T08:27:31.291Z,8.07
2023-05-09T08:29:58.505Z,8.55
2023-05-09T08:32:25.637Z,7.80
2023-05-09T08:34:52.828Z,8.70
2023-05-09T08:37:19.988Z,8.93
2023-05-09T08:39:47.388Z,8.65
2023-05-09T08:42:20.467Z,7.72
2023-05-09T08:44:47.630Z,7.53
2023-05-09T08:47:16.082Z,8.18
2023-05-09T08:49:45.734Z,7.90
2023-05-09T08:52:14.155Z,8.80
2023-05-09T08:54:41.668Z,8.85
2023-05-09T08:57:09.413Z,7.93
2023-05-09T08:59:37.840Z,10.45
2023-05-09T09:02:08.555Z,9.77
2023-05-09T09:04:35.988Z,8.23
2023-05-09T09:07:08.142Z,8.32
2023-05-09T09:09:37.555Z,8.82
2023-05-09T09:12:10.134Z,7.88
2023-05-09T09:14:40.176Z,7.72
2023-05-09T09:17:12.500Z,9.45
2023-05-09T09:22:11.740Z,10.35
2023-05-09T09:24:38.966Z,10.77
2023-05-09T09:27:06.834Z,9.35
2023-05-09T09:29:34.918Z,10.65
2023-05-09T09:32:04.022Z,9.65
2023-05-09T09:34:31.409Z,11.20
2023-05-09T09:36:58.941Z,9.90
2023-05-09T09:39:26.160Z,9.68
2023-05-09T09:41:54.305Z,9.27
2023-05-09T09:44:25.412Z,8.60
2023-05-09T09:46:56.405Z,9.18
2023-05-09T09:49:26.128Z,8.85
2023-05-09T09:51:55.671Z,9.75
2023-05-09T09:54:23.313Z,11.00
2023-05-09T09:56:55.290Z,9.48
2023-05-09T09:59:28.184Z,9.70
2023-05-09T10:01:56.703Z,11.25
2023-05-09T10:04:24.769Z,9.35
2023-05-09T10:06:53.632Z,8.35
2023-05-09T10:09:23.124Z,8.57
2023-05-09T10:11:52.659Z,8.48
2023-05-09T10:14:26.654Z,8.65
2023-05-09T10:16:57.947Z,8.98
2023-05-09T10:19:27.505Z,9.23
2023-05-09T10:21:58.287Z,8.48
2023-05-09T10:24:30.663Z,10.15
2023-05-09T10:27:04.663Z,9.95
2023-05-09T10:29:41.853Z,9.32
2023-05-09T10:32:42.929Z,9.75
2023-05-09T10:35:14.346Z,9.77
2023-05-09T10:37:41.866Z,9.85
2023-05-09T10:40:15.487Z,12.05
2023-05-09T10:42:45.551Z,9.88
2023-05-09T10:45:13.880Z,9.35
2023-05-09T10:47:42.724Z,10.57
2023-05-09T10:50:12.893Z,12.52
2023-05-09T10:53:09.070Z,12.68
2023-05-09T10:55:55.736Z,13.68
2023-05-09T10:58:30.795Z,13.43
2023-05-09T11:00:59.449Z,10.82
2023-05-09T11:03:28.362Z,11.90
2023-05-09T11:05:58.649Z,11.23
2023-05-09T11:08:30.925Z,12.65
2023-05-09T11:11:04.316Z,12.73
2023-05-09T11:13:33.728Z,12.50
2023-05-09T11:16:01.074Z,13.43
2023-05-09T11:18:29.760Z,12.75
2023-05-09T11:20:57.211Z,13.52
2023-05-09T11:23:28.490Z,12.43
2023-05-09T11:26:06.783Z,13.88
2023-05-09T11:28:39.294Z,13.98
2023-05-09T11:31:14.139Z,13.43
2023-05-09T11:33:43.506Z,14.30
2023-05-09T11:36:30.649Z,16.30
2023-05-09T11:39:25.314Z,14.05
2023-05-09T11:41:53.214Z,14.38
2023-05-09T11:44:21.574Z,15.73
2023-05-09T11:46:49.790Z,13.98
2023-05-09T11:49:18.081Z,14.40
2023-05-09T11:51:45.333Z,15.32
2023-05-09T11:54:14.125Z,15.23
2023-05-09T11:56:42.414Z,14.57
2023-05-09T11:59:11.041Z,14.85
2023-05-09T12:01:38.428Z,13.88
2023-05-09T12:04:08.381Z,16.83
2023-05-09T12:06:35.772Z,15.57
2023-05-09T12:09:03.005Z,17.75
2023-05-09T12:11:32.650Z,13.90
2023-05-09T12:14:00.090Z,15.90
2023-05-09T12:16:27.369Z,17.10
2023-05-09T12:18:55.197Z,15.27
2023-05-09T12:21:22.486Z,17.42
2023-05-09T12:23:52.393Z,17.05
2023-05-09T12:26:22.995Z,15.85
2023-05-09T12:28:51.092Z,16.45
2023-05-09T12:31:18.851Z,15.02
2023-05-09T12:33:46.260Z,15.82
2023-05-09T12:36:13.933Z,14.65
2023-05-09T12:38:41.255Z,14.32
2023-05-09T12:41:26.100Z,14.55
2023-05-09T12:43:57.925Z,17.13
2023-05-09T12:46:25.397Z,15.63
2023-05-09T12:48:52.795Z,12.32
2023-05-09T12:51:21.687Z,13.43
2023-05-09T12:53:49.282Z,14.25
2023-05-09T12:56:21.099Z,13.88
2023-05-09T12:58:50.630Z,17.93
2023-05-09T13:01:18.764Z,16.20
2023-05-09T13:03:52.228Z,14.60
2023-05-09T13:06:19.665Z,14.63
2023-05-09T13:09:01.976Z,13.85
2023-05-09T13:11:29.650Z,13.18
2023-05-09T13:13:56.924Z,13.02
2023-05-09T13:16:24.441Z,13.43
2023-05-09T13:18:51.651Z,11.70
2023-05-09T13:21:18.894Z,12.00
2023-05-09T13:23:46.094Z,14.57
2023-05-09T13:26:13.365Z,14.85
2023-05-09T13:28:40.871Z,12.45
2023-05-09T13:31:08.526Z,12.13
2023-05-09T13:33:35.897Z,12.95
2023-05-09T13:36:03.122Z,11.40
2023-05-09T13:38:32.438Z,12.98
2023-05-09T13:41:00.335Z,10.88
2023-05-09T13:43:27.826Z,10.88
2023-05-09T13:45:54.997Z,13.07
2023-05-09T13:48:22.585Z,10.98
2023-05-09T13:50:51.254Z,10.77
2023-05-09T13:53:18.491Z,9.75
2023-05-09T13:55:47.053Z,10.02
2023-05-09T13:58:14.293Z,11.68
2023-05-09T14:00:42.197Z,9.63
2023-05-09T14:03:09.509Z,9.95
2023-05-09T14:05:36.983Z,11.13
2023-05-09T14:08:04.320Z,11.05
2023-05-09T14:10:31.619Z,8.48
2023-05-09T14:12:59.065Z,9.18
2023-05-09T14:15:26.427Z,10.52
2023-05-09T14:17:53.627Z,10.02
2023-05-09T14:20:21.240Z,9.68
2023-05-09T14:22:48.718Z,8.38
2023-05-09T14:25:15.956Z,9.23
2023-05-09T14:27:43.287Z,10.93
2023-05-09T14:30:11.342Z,10.50
2023-05-09T14:32:38.445Z,9.23
2023-05-09T14:35:06.096Z,11.25
2023-05-09T14:37:33.757Z,11.63
2023-05-09T14:40:05.860Z,13.10
2023-05-09T14:42:33.246Z,12.32
2023-05-09T14:45:00.388Z,8.43
2023-05-09T14:47:27.619Z,10.60
2023-05-09T14:49:54.791Z,8.63
2023-05-09T14:52:21.978Z,9.10
2023-05-09T14:54:49.119Z,9.48
2023-05-09T14:57:16.181Z,10.88
2023-05-09T14:59:43.459Z,8.50
2023-05-09T15:02:10.677Z,9.60
2023-05-09T15:04:38.404Z,8.88
2023-05-09T15:07:06.446Z,8.00
2023-05-09T15:09:33.601Z,10.60
2023-05-09T15:12:00.813Z,9.05
2023-05-09T15:14:27.906Z,8.95
2023-05-09T15:16:57.821Z,7.10
2023-05-09T15:19:26.758Z,8.63
2023-05-09T15:21:53.934Z,9.88
2023-05-09T15:24:21.018Z,7.80
2023-05-09T15:26:48.251Z,8.63
2023-05-09T15:29:15.335Z,7.88
2023-05-09T15:31:44.287Z,7.90
2023-05-09T15:34:11.524Z,8.70
2023-05-09T15:36:39.025Z,8.85
2023-05-09T15:39:06.098Z,7.38
2023-05-09T15:41:33.412Z,7.80
2023-05-09T15:44:00.638Z,9.45
2023-05-09T15:46:28.612Z,8.25
2023-05-09T15:48:58.634Z,8.23
2023-05-09T15:51:26.124Z,8.05
2023-05-09T15:53:53.312Z,7.10
2023-05-09T15:56:22.032Z,9.32
2023-05-09T15:58:49.231Z,8.73
2023-05-09T16:01:16.460Z,10.15
2023-05-09T16:03:43.821Z,9.68
2023-05-09T16:06:13.349Z,9.70
2023-05-09T16:08:40.447Z,8.27
2023-05-09T16:11:07.662Z,8.75
2023-05-09T16:13:36.066Z,9.43
2023-05-09T16:16:03.859Z,7.80
2023-05-09T16:18:31.075Z,9.07
2023-05-09T16:20:58.189Z,7.35
2023-05-09T16:23:26.398Z,10.45
2023-05-09T16:25:53.497Z,7.70
2023-05-09T16:28:23.754Z,6.95
2023-05-09T16:30:51.759Z,9.80
2023-05-09T16:33:19.046Z,8.07
2023-05-09T16:35:46.410Z,9.63
2023-05-09T16:38:13.676Z,8.63
2023-05-09T16:40:40.937Z,9.80
2023-05-09T16:43:08.173Z,9.52
2023-05-09T16:45:35.392Z,8.80
2023-05-09T16:48:02.684Z,8.75
2023-05-09T16:53:05.936Z,7.95
2023-05-09T16:55:33.130Z,10.40
2023-05-09T16:58:00.278Z,7.25
2023-05-09T17:00:27.620Z,7.93
2023-05-09T17:02:55.518Z,6.53
2023-05-09T17:05:22.833Z,8.77
2023-05-09T17:07:49.980Z,7.38
2023-05-09T17:10:17.361Z,7.95
2023-05-09T17:12:44.949Z,6.70
2023-05-09T17:15:12.522Z,7.63
2023-05-09T17:17:39.869Z,8.23
2023-05-09T17:20:09.944Z,8.75
2023-05-09T17:22:37.373Z,8.43
2023-05-09T17:25:05.701Z,7.80
2023-05-09T17:27:33.276Z,7.43
2023-05-09T17:30:00.413Z,7.55
2023-05-09T17:32:27.562Z,7.78
2023-05-09T17:34:54.865Z,9.90
2023-05-09T17:37:22.030Z,8.02
2023-05-09T17:39:53.004Z,11.07
2023-05-09T17:42:20.185Z,7.75
2023-05-09T17:44:47.710Z,8.63
2023-05-09T17:47:15.544Z,8.20
2023-05-09T17:49:42.854Z,7.95
2023-05-09T17:52:09.997Z,8.95
2023-05-09T17:54:37.721Z,10.13
2023-05-09T17:57:05.055Z,10.55
2023-05-09T17:59:32.102Z,8.90
2023-05-09T18:01:59.313Z,7.82
2023-05-09T18:04:27.755Z,12.65
2023-05-09T18:06:54.857Z,8.18
2023-05-09T18:09:21.879Z,9.52
2023-05-09T18:11:49.191Z,9.25
2023-05-09T18:14:16.911Z,10.20
2023-05-09T18:16:44.211Z,8.68
2023-05-09T18:19:11.299Z,10.35
2023-05-09T18:21:39.108Z,8.05
2023-05-09T18:24:07.956Z,7.55
2023-05-09T18:26:35.287Z,7.00
2023-05-09T18:29:02.455Z,8.13
2023-05-09T18:31:31.754Z,8.50
2023-05-09T18:33:58.927Z,9.25
2023-05-09T18:36:27.812Z,8.57
2023-05-09T18:38:54.956Z,8.90
2023-05-09T18:41:22.439Z,7.80
2023-05-09T18:43:49.612Z,9.35
2023-05-09T18:46:18.093Z,9.32
2023-05-09T18:48:46.340Z,7.80
2023-05-09T18:51:13.579Z,6.47
2023-05-09T18:53:40.826Z,8.38
2023-05-09T18:56:09.148Z,7.90
2023-05-09T18:58:37.217Z,10.77
2023-05-09T19:01:04.845Z,8.85
2023-05-09T19:03:32.262Z,8.05
2023-05-09T19:06:00.224Z,8.18
2023-05-09T19:08:27.650Z,7.32
2023-05-09T19:10:54.760Z,9.70
2023-05-09T19:13:21.951Z,8.60
2023-05-09T19:15:49.079Z,7.63
2023-05-09T19:18:16.310Z,9.73
2023-05-09T19:20:43.765Z,8.00
2023-05-09T19:23:12.590Z,8.30
2023-05-09T19:25:40.007Z,9.18
2023-05-09T19:28:07.159Z,9.38
2023-05-09T19:30:34.547Z,9.75
2023-05-09T19:33:01.751Z,8.00
2023-05-09T19:35:28.897Z,8.57
2023-05-09T19:37:55.998Z,9.20
2023-05-09T19:40:23.219Z,7.63
2023-05-09T19:42:50.272Z,8.30
2023-05-09T19:45:17.536Z,8.60
2023-05-09T19:47:44.708Z,8.13
2023-05-09T19:50:12.043Z,7.43
2023-05-09T19:52:39.222Z,7.47
2023-05-09T19:55:07.222Z,9.25
2023-05-09T19:57:34.396Z,10.40
2023-05-09T20:00:02.006Z,8.90
2023-05-09T20:02:29.577Z,9.45
2023-05-09T20:04:56.775Z,8.68
2023-05-09T20:07:23.949Z,10.45
2023-05-09T20:09:51.152Z,9.20
2023-05-09T20:12:18.719Z,10.18
2023-05-09T20:14:45.839Z,10.27
2023-05-09T20:17:12.938Z,9.93
2023-05-09T20:19:40.341Z,9.07
2023-05-09T20:22:07.752Z,9.43
2023-05-09T20:24:34.929Z,8.77
2023-05-09T20:27:03.476Z,11.27
2023-05-09T20:29:30.600Z,9.68
2023-05-09T20:31:57.804Z,8.63
2023-05-09T20:34:25.136Z,7.95
2023-05-09T20:36:55.420Z,7.38
2023-05-09T20:39:23.402Z,9.52
2023-05-09T20:41:51.697Z,8.52
2023-05-09T20:44:19.605Z,7.82
2023-05-09T20:46:47.193Z,7.68
2023-05-09T20:49:15.054Z,8.75
2023-05-09T20:51:42.242Z,6.40
2023-05-09T20:54:09.409Z,9.30
2023-05-09T20:56:36.830Z,5.63
2023-05-09T20:59:04.495Z,6.25
2023-05-09T21:01:32.952Z,11.73
2023-05-09T21:04:00.224Z,9.30
2023-05-09T21:06:27.503Z,10.98
2023-05-09T21:08:54.768Z,7.88
2023-05-09T21:11:22.481Z,6.32
2023-05-09T21:13:51.034Z,6.43
2023-05-09T21:16:18.195Z,6.47
2023-05-09T21:18:45.469Z,4.85
2023-05-09T21:21:12.734Z,6.82
2023-05-09T21:23:39.861Z,6.43
2023-05-09T21:26:07.192Z,7.70
2023-05-09T21:28:34.245Z,5.82
2023-05-09T21:31:02.142Z,9.88
2023-05-09T21:33:30.104Z,8.80
2023-05-09T21:35:57.540Z,8.60
2023-05-09T21:38:24.688Z,7.60
2023-05-09T21:40:51.896Z,8.57
2023-05-09T21:43:19.503Z,8.88
2023-05-09T21:45:46.653Z,7.22
2023-05-09T21:48:13.902Z,7.30
2023-05-09T21:50:41.114Z,6.32
2023-05-09T21:53:08.257Z,5.80
2023-05-09T21:55:35.530Z,3.97
2023-05-09T21:58:02.678Z,5.75
2023-05-09T22:00:29.795Z,2.95
2023-05-09T22:02:56.930Z,3.92
2023-05-09T22:05:24.294Z,3.53
2023-05-09T22:07:51.924Z,2.92
2023-05-09T22:10:19.132Z,2.47
2023-05-09T22:12:46.349Z,1.75
2023-05-09T22:15:13.606Z,1.90
2023-05-09T22:17:40.738Z,2.70
2023-05-09T22:20:08.338Z,1.80
2023-05-09T22:22:35.570Z,2.38
2023-05-09T22:25:04.449Z,1.70
2023-05-09T22:27:31.668Z,2.25
2023-05-09T22:29:58.872Z,2.55
2023-05-09T22:32:26.089Z,2.08
2023-05-09T22:34:54.476Z,2.63
2023-05-09T22:37:21.946Z,1.88
2023-05-09T22:39:49.057Z,2.22
2023-05-09T22:42:16.376Z,1.88
2023-05-09T22:44:44.103Z,1.95
2023-05-09T22:47:14.385Z,2.22
2023-05-09T22:49:42.298Z,1.95
2023-05-09T22:52:10.814Z,1.73
2023-05-09T22:54:38.045Z,1.70
2023-05-09T22:57:05.206Z,1.73
2023-05-09T22:59:32.504Z,2.03
2023-05-09T23:01:59.867Z,3.05
2023-05-09T23:04:27.247Z,1.73
2023-05-09T23:06:54.485Z,1.92
2023-05-09T23:09:21.599Z,1.88
2023-05-09T23:11:48.900Z,1.77
2023-05-09T23:14:16.036Z,2.22
2023-05-09T23:16:43.419Z,2.65
2023-05-09T23:19:10.832Z,2.17
2023-05-09T23:21:38.049Z,1.80
2023-05-09T23:24:05.437Z,2.00
2023-05-09T23:26:33.325Z,2.67
2023-05-09T23:29:00.920Z,2.20
2023-05-09T23:31:28.185Z,2.30
2023-05-09T23:33:55.346Z,1.88
2023-05-09T23:36:22.500Z,4.55
2023-05-09T23:38:49.609Z,2.00
2023-05-09T23:41:16.861Z,2.10
2023-05-09T23:43:44.065Z,2.05
2023-05-09T23:46:11.328Z,3.58
2023-05-09T23:48:38.456Z,3.30
2023-05-09T23:51:06.027Z,4.20
2023-05-09T23:53:35.448Z,3.20
2023-05-09T23:56:03.249Z,2.90
2023-05-09T23:58:30.532Z,3.40
